sensor_id;sensor_type;location;lat;lon;timestamp;temperature;humidity
12700;DHT22;6414;49.570;6.060;2023-02-17T00:02:34;8.10;99.90
12700;DHT22;6414;49.570;6.060;2023-02-17T00:05:20;8.20;99.90
12700;DHT22;6414;49.570;6.060;2023-02-17T00:08:05;8.20;99.90
12700;DHT22;6414;49.570;6.060;2023-02-17T00:10:54;8.20;99.90
12700;DHT22;6414;49.570;6.060;2023-02-17T00:13:39;8.20;99.90
12700;DHT22;6414;49.570;6.060;2023-02-17T00:16:25;8.20;99.90
12700;DHT22;6414;49.570;6.060;2023-02-17T00:19:10;8.20;99.90
12700;DHT22;6414;49.570;6.060;2023-02-17T00:22:07;8.20;99.90
12700;DHT22;6414;49.570;6.060;2023-02-17T00:24:53;8.20;99.90
12700;DHT22;6414;49.570;6.060;2023-02-17T00:27:38;8.20;99.90
12700;DHT22;6414;49.570;6.060;2023-02-17T00:30:24;8.30;99.90
12700;DHT22;6414;49.570;6.060;2023-02-17T00:33:10;8.20;99.90
12700;DHT22;6414;49.570;6.060;2023-02-17T00:35:55;8.20;99.90
12700;DHT22;6414;49.570;6.060;2023-02-17T00:38:41;8.30;99.90
12700;DHT22;6414;49.570;6.060;2023-02-17T00:41:27;8.30;99.90
12700;DHT22;6414;49.570;6.060;2023-02-17T00:44:16;8.30;99.90
12700;DHT22;6414;49.570;6.060;2023-02-17T00:47:01;8.40;99.90
12700;DHT22;6414;49.570;6.060;2023-02-17T00:49:46;8.40;99.90
12700;DHT22;6414;49.570;6.060;2023-02-17T00:52:32;8.40;99.90
12700;DHT22;6414;49.570;6.060;2023-02-17T00:55:18;8.40;99.90
12700;DHT22;6414;49.570;6.060;2023-02-17T00:58:03;8.50;99.90
12700;DHT22;6414;49.570;6.060;2023-02-17T01:00:49;8.50;99.90
12700;DHT22;6414;49.570;6.060;2023-02-17T01:03:34;8.50;99.90
12700;DHT22;6414;49.570;6.060;2023-02-17T01:06:28;8.50;99.90
12700;DHT22;6414;49.570;6.060;2023-02-17T01:09:12;8.50;99.90
12700;DHT22;6414;49.570;6.060;2023-02-17T01:11:57;8.50;99.90
12700;DHT22;6414;49.570;6.060;2023-02-17T01:14:42;8.60;99.90
12700;DHT22;6414;49.570;6.060;2023-02-17T01:17:28;8.60;99.90
12700;DHT22;6414;49.570;6.060;2023-02-17T01:20:14;8.60;99.90
12700;DHT22;6414;49.570;6.060;2023-02-17T01:23:00;8.60;99.90
12700;DHT22;6414;49.570;6.060;2023-02-17T01:25:45;8.60;99.90
12700;DHT22;6414;49.570;6.060;2023-02-17T01:28:31;8.60;99.90
12700;DHT22;6414;49.570;6.060;2023-02-17T01:31:17;8.60;99.90
12700;DHT22;6414;49.570;6.060;2023-02-17T01:34:03;8.60;99.90
12700;DHT22;6414;49.570;6.060;2023-02-17T01:36:48;8.50;99.90
12700;DHT22;6414;49.570;6.060;2023-02-17T01:39:33;8.60;99.90
12700;DHT22;6414;49.570;6.060;2023-02-17T01:42:19;8.60;99.90
12700;DHT22;6414;49.570;6.060;2023-02-17T01:48:09;8.60;99.90
12700;DHT22;6414;49.570;6.060;2023-02-17T01:50:57;8.60;99.90
12700;DHT22;6414;49.570;6.060;2023-02-17T01:53:47;8.70;99.90
12700;DHT22;6414;49.570;6.060;2023-02-17T01:56:28;8.60;99.90
12700;DHT22;6414;49.570;6.060;2023-02-17T01:59:18;8.60;99.90
12700;DHT22;6414;49.570;6.060;2023-02-17T02:02:02;8.60;99.90
12700;DHT22;6414;49.570;6.060;2023-02-17T02:04:48;8.70;99.90
12700;DHT22;6414;49.570;6.060;2023-02-17T02:07:33;8.70;99.90
12700;DHT22;6414;49.570;6.060;2023-02-17T02:10:19;8.70;99.90
12700;DHT22;6414;49.570;6.060;2023-02-17T02:13:05;8.60;99.90
12700;DHT22;6414;49.570;6.060;2023-02-17T02:16:03;8.70;99.90
12700;DHT22;6414;49.570;6.060;2023-02-17T02:21:45;8.70;99.90
12700;DHT22;6414;49.570;6.060;2023-02-17T02:24:27;8.70;99.90
12700;DHT22;6414;49.570;6.060;2023-02-17T02:27:24;8.70;99.90
12700;DHT22;6414;49.570;6.060;2023-02-17T02:33:12;8.70;99.90
12700;DHT22;6414;49.570;6.060;2023-02-17T02:36:14;8.70;99.90
12700;DHT22;6414;49.570;6.060;2023-02-17T02:39:02;8.70;99.90
12700;DHT22;6414;49.570;6.060;2023-02-17T02:41:52;8.60;99.90
12700;DHT22;6414;49.570;6.060;2023-02-17T02:44:35;8.60;99.90
12700;DHT22;6414;49.570;6.060;2023-02-17T02:47:50;8.70;99.90
12700;DHT22;6414;49.570;6.060;2023-02-17T02:50:44;8.70;99.90
12700;DHT22;6414;49.570;6.060;2023-02-17T02:53:46;8.70;99.90
12700;DHT22;6414;49.570;6.060;2023-02-17T03:00:14;8.70;99.90
12700;DHT22;6414;49.570;6.060;2023-02-17T03:03:09;8.70;99.90
12700;DHT22;6414;49.570;6.060;2023-02-17T03:08:52;8.70;99.90
12700;DHT22;6414;49.570;6.060;2023-02-17T03:11:36;8.70;99.90
12700;DHT22;6414;49.570;6.060;2023-02-17T03:14:21;8.70;99.90
12700;DHT22;6414;49.570;6.060;2023-02-17T03:17:07;8.70;99.90
12700;DHT22;6414;49.570;6.060;2023-02-17T03:19:52;8.70;99.90
12700;DHT22;6414;49.570;6.060;2023-02-17T03:22:38;8.70;99.90
12700;DHT22;6414;49.570;6.060;2023-02-17T03:25:23;8.70;99.90
12700;DHT22;6414;49.570;6.060;2023-02-17T03:28:08;8.70;99.90
12700;DHT22;6414;49.570;6.060;2023-02-17T03:30:54;8.70;99.90
12700;DHT22;6414;49.570;6.060;2023-02-17T03:33:39;8.70;99.90
12700;DHT22;6414;49.570;6.060;2023-02-17T03:36:26;8.70;99.90
12700;DHT22;6414;49.570;6.060;2023-02-17T03:39:11;8.60;99.90
12700;DHT22;6414;49.570;6.060;2023-02-17T03:41:57;8.70;99.90
12700;DHT22;6414;49.570;6.060;2023-02-17T03:44:42;8.60;99.90
12700;DHT22;6414;49.570;6.060;2023-02-17T03:47:27;8.70;99.90
12700;DHT22;6414;49.570;6.060;2023-02-17T03:50:13;8.70;99.90
12700;DHT22;6414;49.570;6.060;2023-02-17T03:52:59;8.60;99.90
12700;DHT22;6414;49.570;6.060;2023-02-17T03:55:44;8.60;99.90
12700;DHT22;6414;49.570;6.060;2023-02-17T03:58:30;8.70;99.90
12700;DHT22;6414;49.570;6.060;2023-02-17T04:01:15;8.60;99.90
12700;DHT22;6414;49.570;6.060;2023-02-17T04:04:01;8.60;99.90
12700;DHT22;6414;49.570;6.060;2023-02-17T04:06:46;8.70;99.90
12700;DHT22;6414;49.570;6.060;2023-02-17T04:09:32;8.70;99.90
12700;DHT22;6414;49.570;6.060;2023-02-17T04:12:17;8.60;99.90
12700;DHT22;6414;49.570;6.060;2023-02-17T04:15:03;8.60;99.90
12700;DHT22;6414;49.570;6.060;2023-02-17T04:17:48;8.60;99.90
12700;DHT22;6414;49.570;6.060;2023-02-17T04:20:34;8.70;99.90
12700;DHT22;6414;49.570;6.060;2023-02-17T04:23:20;8.70;99.90
12700;DHT22;6414;49.570;6.060;2023-02-17T04:26:05;8.70;99.90
12700;DHT22;6414;49.570;6.060;2023-02-17T04:28:51;8.70;99.90
12700;DHT22;6414;49.570;6.060;2023-02-17T04:31:37;8.60;99.90
12700;DHT22;6414;49.570;6.060;2023-02-17T04:34:22;8.70;99.90
12700;DHT22;6414;49.570;6.060;2023-02-17T04:37:08;8.70;99.90
12700;DHT22;6414;49.570;6.060;2023-02-17T04:39:53;8.70;99.90
12700;DHT22;6414;49.570;6.060;2023-02-17T04:42:39;8.70;99.90
12700;DHT22;6414;49.570;6.060;2023-02-17T04:45:24;8.80;99.90
12700;DHT22;6414;49.570;6.060;2023-02-17T04:48:10;8.80;99.90
12700;DHT22;6414;49.570;6.060;2023-02-17T04:50:55;8.80;99.90
12700;DHT22;6414;49.570;6.060;2023-02-17T04:53:41;8.80;99.90
12700;DHT22;6414;49.570;6.060;2023-02-17T04:56:27;8.90;99.90
12700;DHT22;6414;49.570;6.060;2023-02-17T04:59:13;8.80;99.90
12700;DHT22;6414;49.570;6.060;2023-02-17T05:01:59;8.80;99.90
12700;DHT22;6414;49.570;6.060;2023-02-17T05:04:44;8.90;99.90
12700;DHT22;6414;49.570;6.060;2023-02-17T05:07:29;8.80;99.90
12700;DHT22;6414;49.570;6.060;2023-02-17T05:10:15;8.90;99.90
12700;DHT22;6414;49.570;6.060;2023-02-17T05:13:00;8.90;99.90
12700;DHT22;6414;49.570;6.060;2023-02-17T05:15:45;8.90;99.90
12700;DHT22;6414;49.570;6.060;2023-02-17T05:18:30;8.90;99.90
12700;DHT22;6414;49.570;6.060;2023-02-17T05:21:16;8.80;99.90
12700;DHT22;6414;49.570;6.060;2023-02-17T05:24:03;8.90;99.90
12700;DHT22;6414;49.570;6.060;2023-02-17T05:26:48;8.80;99.90
12700;DHT22;6414;49.570;6.060;2023-02-17T05:29:33;8.90;99.90
12700;DHT22;6414;49.570;6.060;2023-02-17T05:32:18;8.90;99.90
12700;DHT22;6414;49.570;6.060;2023-02-17T05:35:04;8.90;99.90
12700;DHT22;6414;49.570;6.060;2023-02-17T05:37:50;8.80;99.90
12700;DHT22;6414;49.570;6.060;2023-02-17T05:40:35;8.80;99.90
12700;DHT22;6414;49.570;6.060;2023-02-17T05:43:21;8.90;99.90
12700;DHT22;6414;49.570;6.060;2023-02-17T05:46:06;8.90;99.90
12700;DHT22;6414;49.570;6.060;2023-02-17T05:48:52;8.90;99.90
12700;DHT22;6414;49.570;6.060;2023-02-17T05:51:38;8.80;99.90
12700;DHT22;6414;49.570;6.060;2023-02-17T05:54:24;8.80;99.90
12700;DHT22;6414;49.570;6.060;2023-02-17T05:57:09;8.90;99.90
12700;DHT22;6414;49.570;6.060;2023-02-17T05:59:56;8.90;99.90
12700;DHT22;6414;49.570;6.060;2023-02-17T06:02:41;8.80;99.90
12700;DHT22;6414;49.570;6.060;2023-02-17T06:05:27;8.90;99.90
12700;DHT22;6414;49.570;6.060;2023-02-17T06:08:12;8.90;99.90
12700;DHT22;6414;49.570;6.060;2023-02-17T06:10:57;8.90;99.90
12700;DHT22;6414;49.570;6.060;2023-02-17T06:13:43;8.90;99.90
12700;DHT22;6414;49.570;6.060;2023-02-17T06:16:29;8.90;99.90
12700;DHT22;6414;49.570;6.060;2023-02-17T06:19:16;9.00;99.90
12700;DHT22;6414;49.570;6.060;2023-02-17T06:22:02;8.90;99.90
12700;DHT22;6414;49.570;6.060;2023-02-17T06:24:47;9.00;99.90
12700;DHT22;6414;49.570;6.060;2023-02-17T06:27:33;8.90;99.90
12700;DHT22;6414;49.570;6.060;2023-02-17T06:30:18;8.90;99.90
12700;DHT22;6414;49.570;6.060;2023-02-17T06:33:03;9.00;99.90
12700;DHT22;6414;49.570;6.060;2023-02-17T06:35:50;8.90;99.90
12700;DHT22;6414;49.570;6.060;2023-02-17T06:38:35;8.90;99.90
12700;DHT22;6414;49.570;6.060;2023-02-17T06:41:20;9.00;99.90
12700;DHT22;6414;49.570;6.060;2023-02-17T06:44:06;8.90;99.90
12700;DHT22;6414;49.570;6.060;2023-02-17T06:46:51;9.00;99.90
12700;DHT22;6414;49.570;6.060;2023-02-17T06:49:37;9.00;99.90
12700;DHT22;6414;49.570;6.060;2023-02-17T06:52:22;9.00;99.90
12700;DHT22;6414;49.570;6.060;2023-02-17T06:55:08;9.00;99.90
12700;DHT22;6414;49.570;6.060;2023-02-17T06:57:53;9.00;99.90
12700;DHT22;6414;49.570;6.060;2023-02-17T07:00:38;9.00;99.90
12700;DHT22;6414;49.570;6.060;2023-02-17T07:03:24;9.00;99.90
12700;DHT22;6414;49.570;6.060;2023-02-17T07:06:10;9.00;99.90
12700;DHT22;6414;49.570;6.060;2023-02-17T07:08:55;9.00;99.90
12700;DHT22;6414;49.570;6.060;2023-02-17T07:11:40;9.00;99.90
12700;DHT22;6414;49.570;6.060;2023-02-17T07:14:26;9.00;99.90
12700;DHT22;6414;49.570;6.060;2023-02-17T07:17:12;9.00;99.90
12700;DHT22;6414;49.570;6.060;2023-02-17T07:19:58;9.10;99.90
12700;DHT22;6414;49.570;6.060;2023-02-17T07:22:45;9.10;99.90
12700;DHT22;6414;49.570;6.060;2023-02-17T07:25:30;9.10;99.90
12700;DHT22;6414;49.570;6.060;2023-02-17T07:28:15;9.10;99.90
12700;DHT22;6414;49.570;6.060;2023-02-17T07:31:04;9.20;99.90
12700;DHT22;6414;49.570;6.060;2023-02-17T07:33:49;9.20;99.90
12700;DHT22;6414;49.570;6.060;2023-02-17T07:36:34;9.10;99.90
12700;DHT22;6414;49.570;6.060;2023-02-17T07:39:20;9.10;99.90
12700;DHT22;6414;49.570;6.060;2023-02-17T07:42:06;9.10;99.90
12700;DHT22;6414;49.570;6.060;2023-02-17T07:44:51;9.20;99.90
12700;DHT22;6414;49.570;6.060;2023-02-17T07:47:37;9.20;99.90
12700;DHT22;6414;49.570;6.060;2023-02-17T07:50:23;9.20;99.90
12700;DHT22;6414;49.570;6.060;2023-02-17T07:53:09;9.30;99.90
12700;DHT22;6414;49.570;6.060;2023-02-17T07:55:55;9.20;99.90
12700;DHT22;6414;49.570;6.060;2023-02-17T07:58:41;9.30;99.90
12700;DHT22;6414;49.570;6.060;2023-02-17T08:01:26;9.30;99.90
12700;DHT22;6414;49.570;6.060;2023-02-17T08:04:11;9.30;99.90
12700;DHT22;6414;49.570;6.060;2023-02-17T08:06:56;9.30;99.90
12700;DHT22;6414;49.570;6.060;2023-02-17T08:09:42;9.30;99.90
12700;DHT22;6414;49.570;6.060;2023-02-17T08:12:46;9.30;99.90
12700;DHT22;6414;49.570;6.060;2023-02-17T08:15:51;9.30;99.90
12700;DHT22;6414;49.570;6.060;2023-02-17T08:18:36;9.30;99.90
12700;DHT22;6414;49.570;6.060;2023-02-17T08:21:22;9.40;99.90
12700;DHT22;6414;49.570;6.060;2023-02-17T08:24:07;9.40;99.90
12700;DHT22;6414;49.570;6.060;2023-02-17T08:26:53;9.40;99.90
12700;DHT22;6414;49.570;6.060;2023-02-17T08:29:38;9.40;99.90
12700;DHT22;6414;49.570;6.060;2023-02-17T08:32:23;9.40;99.90
12700;DHT22;6414;49.570;6.060;2023-02-17T08:35:08;9.40;99.90
12700;DHT22;6414;49.570;6.060;2023-02-17T08:37:54;9.50;99.90
12700;DHT22;6414;49.570;6.060;2023-02-17T08:40:39;9.50;99.90
12700;DHT22;6414;49.570;6.060;2023-02-17T08:43:24;9.50;99.90
12700;DHT22;6414;49.570;6.060;2023-02-17T08:46:10;9.50;99.90
12700;DHT22;6414;49.570;6.060;2023-02-17T08:48:55;9.50;99.90
12700;DHT22;6414;49.570;6.060;2023-02-17T08:51:40;9.60;99.90
12700;DHT22;6414;49.570;6.060;2023-02-17T08:54:26;9.60;99.90
12700;DHT22;6414;49.570;6.060;2023-02-17T08:57:12;9.60;99.90
12700;DHT22;6414;49.570;6.060;2023-02-17T08:59:58;9.60;99.90
12700;DHT22;6414;49.570;6.060;2023-02-17T09:02:44;9.60;99.90
12700;DHT22;6414;49.570;6.060;2023-02-17T09:05:29;9.60;99.90
12700;DHT22;6414;49.570;6.060;2023-02-17T09:08:15;9.60;99.90
12700;DHT22;6414;49.570;6.060;2023-02-17T09:11:01;9.60;99.90
12700;DHT22;6414;49.570;6.060;2023-02-17T09:13:47;9.70;99.90
12700;DHT22;6414;49.570;6.060;2023-02-17T09:16:32;9.60;99.90
12700;DHT22;6414;49.570;6.060;2023-02-17T09:19:17;9.60;99.90
12700;DHT22;6414;49.570;6.060;2023-02-17T09:22:03;9.70;99.90
12700;DHT22;6414;49.570;6.060;2023-02-17T09:24:49;9.80;99.90
12700;DHT22;6414;49.570;6.060;2023-02-17T09:27:35;9.90;99.90
12700;DHT22;6414;49.570;6.060;2023-02-17T09:30:21;9.90;99.90
12700;DHT22;6414;49.570;6.060;2023-02-17T09:33:07;9.90;99.90
12700;DHT22;6414;49.570;6.060;2023-02-17T09:35:53;10.00;99.90
12700;DHT22;6414;49.570;6.060;2023-02-17T09:38:39;10.00;99.90
12700;DHT22;6414;49.570;6.060;2023-02-17T09:41:44;10.10;99.90
12700;DHT22;6414;49.570;6.060;2023-02-17T09:44:34;10.00;99.90
12700;DHT22;6414;49.570;6.060;2023-02-17T09:47:17;10.10;99.90
12700;DHT22;6414;49.570;6.060;2023-02-17T09:50:04;10.20;99.90
12700;DHT22;6414;49.570;6.060;2023-02-17T09:53:02;10.10;99.90
12700;DHT22;6414;49.570;6.060;2023-02-17T09:55:49;10.20;99.90
12700;DHT22;6414;49.570;6.060;2023-02-17T09:58:40;10.20;99.90
12700;DHT22;6414;49.570;6.060;2023-02-17T10:01:27;10.10;99.90
12700;DHT22;6414;49.570;6.060;2023-02-17T10:04:25;10.00;99.90
12700;DHT22;6414;49.570;6.060;2023-02-17T10:07:32;10.00;99.90
12700;DHT22;6414;49.570;6.060;2023-02-17T10:13:02;10.10;99.90
12700;DHT22;6414;49.570;6.060;2023-02-17T10:15:48;10.10;99.90
12700;DHT22;6414;49.570;6.060;2023-02-17T10:18:38;10.20;99.90
12700;DHT22;6414;49.570;6.060;2023-02-17T10:22:05;10.20;99.90
12700;DHT22;6414;49.570;6.060;2023-02-17T10:24:10;10.20;99.90
12700;DHT22;6414;49.570;6.060;2023-02-17T10:27:02;10.20;99.90
12700;DHT22;6414;49.570;6.060;2023-02-17T10:32:30;10.20;99.90
12700;DHT22;6414;49.570;6.060;2023-02-17T10:35:16;10.20;99.90
12700;DHT22;6414;49.570;6.060;2023-02-17T10:38:30;10.10;99.90
12700;DHT22;6414;49.570;6.060;2023-02-17T10:41:12;10.10;99.90
12700;DHT22;6414;49.570;6.060;2023-02-17T10:43:57;10.10;99.90
12700;DHT22;6414;49.570;6.060;2023-02-17T10:46:42;10.20;99.90
12700;DHT22;6414;49.570;6.060;2023-02-17T10:49:28;10.30;99.90
12700;DHT22;6414;49.570;6.060;2023-02-17T10:52:17;10.30;99.90
12700;DHT22;6414;49.570;6.060;2023-02-17T10:55:04;10.30;99.90
12700;DHT22;6414;49.570;6.060;2023-02-17T10:57:48;10.30;99.90
12700;DHT22;6414;49.570;6.060;2023-02-17T11:00:33;10.30;99.90
12700;DHT22;6414;49.570;6.060;2023-02-17T11:03:19;10.40;99.90
12700;DHT22;6414;49.570;6.060;2023-02-17T11:06:05;10.30;99.90
12700;DHT22;6414;49.570;6.060;2023-02-17T11:08:51;10.30;99.90
12700;DHT22;6414;49.570;6.060;2023-02-17T11:11:36;10.30;99.90
12700;DHT22;6414;49.570;6.060;2023-02-17T11:14:28;10.40;99.90
12700;DHT22;6414;49.570;6.060;2023-02-17T11:20:24;10.40;99.90
12700;DHT22;6414;49.570;6.060;2023-02-17T11:23:04;10.40;99.90
12700;DHT22;6414;49.570;6.060;2023-02-17T11:26:14;10.40;99.90
12700;DHT22;6414;49.570;6.060;2023-02-17T11:28:54;10.40;99.90
12700;DHT22;6414;49.570;6.060;2023-02-17T11:31:40;10.40;99.90
12700;DHT22;6414;49.570;6.060;2023-02-17T11:34:26;10.50;99.90
12700;DHT22;6414;49.570;6.060;2023-02-17T11:39:56;10.60;99.90
12700;DHT22;6414;49.570;6.060;2023-02-17T11:42:41;10.60;99.90
12700;DHT22;6414;49.570;6.060;2023-02-17T11:45:33;10.80;99.90
12700;DHT22;6414;49.570;6.060;2023-02-17T11:57:02;10.80;99.90
12700;DHT22;6414;49.570;6.060;2023-02-17T11:59:50;10.90;99.90
12700;DHT22;6414;49.570;6.060;2023-02-17T12:08:56;10.80;99.90
12700;DHT22;6414;49.570;6.060;2023-02-17T12:14:57;10.80;99.90
12700;DHT22;6414;49.570;6.060;2023-02-17T12:21:03;10.80;99.90
12700;DHT22;6414;49.570;6.060;2023-02-17T12:23:54;10.80;99.90
12700;DHT22;6414;49.570;6.060;2023-02-17T12:26:41;10.80;99.90
12700;DHT22;6414;49.570;6.060;2023-02-17T12:29:37;10.70;99.90
12700;DHT22;6414;49.570;6.060;2023-02-17T12:32:50;10.70;99.90
12700;DHT22;6414;49.570;6.060;2023-02-17T12:35:45;10.70;99.90
12700;DHT22;6414;49.570;6.060;2023-02-17T12:38:33;10.70;99.90
12700;DHT22;6414;49.570;6.060;2023-02-17T12:41:19;10.60;99.90
12700;DHT22;6414;49.570;6.060;2023-02-17T12:44:14;10.70;99.90
12700;DHT22;6414;49.570;6.060;2023-02-17T12:46:59;10.70;99.90
12700;DHT22;6414;49.570;6.060;2023-02-17T12:49:47;10.70;99.90
12700;DHT22;6414;49.570;6.060;2023-02-17T12:52:36;10.80;99.90
12700;DHT22;6414;49.570;6.060;2023-02-17T12:55:20;10.70;99.90
12700;DHT22;6414;49.570;6.060;2023-02-17T12:58:14;10.60;99.90
12700;DHT22;6414;49.570;6.060;2023-02-17T13:01:08;10.70;99.90
12700;DHT22;6414;49.570;6.060;2023-02-17T13:03:52;10.70;99.90
12700;DHT22;6414;49.570;6.060;2023-02-17T13:06:38;10.70;99.90
12700;DHT22;6414;49.570;6.060;2023-02-17T13:09:41;10.70;99.90
12700;DHT22;6414;49.570;6.060;2023-02-17T13:15:45;10.70;99.90
12700;DHT22;6414;49.570;6.060;2023-02-17T13:18:26;10.80;99.90
12700;DHT22;6414;49.570;6.060;2023-02-17T13:24:29;10.80;99.90
12700;DHT22;6414;49.570;6.060;2023-02-17T13:27:08;10.80;99.90
12700;DHT22;6414;49.570;6.060;2023-02-17T13:29:45;10.80;99.90
12700;DHT22;6414;49.570;6.060;2023-02-17T13:32:31;10.80;99.90
12700;DHT22;6414;49.570;6.060;2023-02-17T13:38:08;10.80;99.90
12700;DHT22;6414;49.570;6.060;2023-02-17T13:40:56;10.70;99.90
12700;DHT22;6414;49.570;6.060;2023-02-17T13:43:42;10.70;99.90
12700;DHT22;6414;49.570;6.060;2023-02-17T13:46:29;10.70;99.90
12700;DHT22;6414;49.570;6.060;2023-02-17T13:49:18;10.70;99.90
12700;DHT22;6414;49.570;6.060;2023-02-17T13:52:06;10.80;99.90
12700;DHT22;6414;49.570;6.060;2023-02-17T13:54:52;10.70;99.90
12700;DHT22;6414;49.570;6.060;2023-02-17T13:57:37;10.70;99.90
12700;DHT22;6414;49.570;6.060;2023-02-17T14:00:23;10.70;99.90
12700;DHT22;6414;49.570;6.060;2023-02-17T14:03:21;10.70;99.90
12700;DHT22;6414;49.570;6.060;2023-02-17T14:06:06;10.70;99.90
12700;DHT22;6414;49.570;6.060;2023-02-17T14:08:52;10.60;99.90
12700;DHT22;6414;49.570;6.060;2023-02-17T14:11:37;10.70;99.90
12700;DHT22;6414;49.570;6.060;2023-02-17T14:14:25;10.70;99.90
12700;DHT22;6414;49.570;6.060;2023-02-17T14:17:30;10.70;99.90
12700;DHT22;6414;49.570;6.060;2023-02-17T14:20:34;10.70;99.90
12700;DHT22;6414;49.570;6.060;2023-02-17T14:23:20;10.60;99.90
12700;DHT22;6414;49.570;6.060;2023-02-17T14:26:25;10.70;99.90
12700;DHT22;6414;49.570;6.060;2023-02-17T14:29:01;10.70;99.90
12700;DHT22;6414;49.570;6.060;2023-02-17T14:31:47;10.70;99.90
12700;DHT22;6414;49.570;6.060;2023-02-17T14:34:32;10.70;99.90
12700;DHT22;6414;49.570;6.060;2023-02-17T14:37:22;10.70;99.90
12700;DHT22;6414;49.570;6.060;2023-02-17T14:40:06;10.70;99.90
12700;DHT22;6414;49.570;6.060;2023-02-17T14:42:50;10.60;99.90
12700;DHT22;6414;49.570;6.060;2023-02-17T14:45:36;10.60;99.90
12700;DHT22;6414;49.570;6.060;2023-02-17T14:48:21;10.60;99.90
12700;DHT22;6414;49.570;6.060;2023-02-17T14:51:14;10.50;99.90
12700;DHT22;6414;49.570;6.060;2023-02-17T14:54:10;10.50;99.90
12700;DHT22;6414;49.570;6.060;2023-02-17T14:56:55;10.50;99.90
12700;DHT22;6414;49.570;6.060;2023-02-17T14:59:38;10.50;99.90
12700;DHT22;6414;49.570;6.060;2023-02-17T15:02:23;10.50;99.90
12700;DHT22;6414;49.570;6.060;2023-02-17T15:05:08;10.50;99.90
12700;DHT22;6414;49.570;6.060;2023-02-17T15:07:54;10.50;99.90
12700;DHT22;6414;49.570;6.060;2023-02-17T15:10:39;10.50;99.90
12700;DHT22;6414;49.570;6.060;2023-02-17T15:13:24;10.50;99.90
12700;DHT22;6414;49.570;6.060;2023-02-17T15:16:10;10.50;99.90
12700;DHT22;6414;49.570;6.060;2023-02-17T15:18:56;10.50;99.90
12700;DHT22;6414;49.570;6.060;2023-02-17T15:21:42;10.50;99.90
12700;DHT22;6414;49.570;6.060;2023-02-17T15:24:27;10.60;99.90
12700;DHT22;6414;49.570;6.060;2023-02-17T15:27:13;10.60;99.90
12700;DHT22;6414;49.570;6.060;2023-02-17T15:29:58;10.60;99.90
12700;DHT22;6414;49.570;6.060;2023-02-17T15:32:44;10.70;99.90
12700;DHT22;6414;49.570;6.060;2023-02-17T15:35:30;10.70;99.90
12700;DHT22;6414;49.570;6.060;2023-02-17T15:38:15;10.70;99.90
12700;DHT22;6414;49.570;6.060;2023-02-17T15:41:01;10.70;99.90
12700;DHT22;6414;49.570;6.060;2023-02-17T15:43:46;10.70;99.90
12700;DHT22;6414;49.570;6.060;2023-02-17T15:46:32;10.70;99.90
12700;DHT22;6414;49.570;6.060;2023-02-17T15:49:18;10.70;99.90
12700;DHT22;6414;49.570;6.060;2023-02-17T15:52:07;10.70;99.90
12700;DHT22;6414;49.570;6.060;2023-02-17T15:54:50;10.70;99.90
12700;DHT22;6414;49.570;6.060;2023-02-17T15:57:44;10.80;99.90
12700;DHT22;6414;49.570;6.060;2023-02-17T16:00:25;10.80;99.90
12700;DHT22;6414;49.570;6.060;2023-02-17T16:03:13;10.80;99.90
12700;DHT22;6414;49.570;6.060;2023-02-17T16:05:58;10.80;99.90
12700;DHT22;6414;49.570;6.060;2023-02-17T16:08:44;10.80;99.90
12700;DHT22;6414;49.570;6.060;2023-02-17T16:11:30;10.80;99.90
12700;DHT22;6414;49.570;6.060;2023-02-17T16:14:32;10.80;99.90
12700;DHT22;6414;49.570;6.060;2023-02-17T16:17:13;10.90;99.90
12700;DHT22;6414;49.570;6.060;2023-02-17T16:19:59;10.90;99.90
12700;DHT22;6414;49.570;6.060;2023-02-17T16:22:44;10.90;99.90
12700;DHT22;6414;49.570;6.060;2023-02-17T16:25:29;10.90;99.90
12700;DHT22;6414;49.570;6.060;2023-02-17T16:28:18;10.90;99.90
12700;DHT22;6414;49.570;6.060;2023-02-17T16:31:00;10.90;99.90
12700;DHT22;6414;49.570;6.060;2023-02-17T16:33:46;10.80;99.90
12700;DHT22;6414;49.570;6.060;2023-02-17T16:36:31;10.80;99.90
12700;DHT22;6414;49.570;6.060;2023-02-17T16:39:17;10.80;99.90
12700;DHT22;6414;49.570;6.060;2023-02-17T16:42:01;10.80;99.90
12700;DHT22;6414;49.570;6.060;2023-02-17T16:44:47;10.80;99.90
12700;DHT22;6414;49.570;6.060;2023-02-17T16:47:33;10.80;99.90
12700;DHT22;6414;49.570;6.060;2023-02-17T16:50:25;10.70;99.90
12700;DHT22;6414;49.570;6.060;2023-02-17T16:53:10;10.70;99.90
12700;DHT22;6414;49.570;6.060;2023-02-17T16:55:55;10.70;99.90
12700;DHT22;6414;49.570;6.060;2023-02-17T16:58:40;10.70;99.90
12700;DHT22;6414;49.570;6.060;2023-02-17T17:01:25;10.70;99.90
12700;DHT22;6414;49.570;6.060;2023-02-17T17:04:11;10.70;99.90
12700;DHT22;6414;49.570;6.060;2023-02-17T17:06:57;10.80;99.90
12700;DHT22;6414;49.570;6.060;2023-02-17T17:09:43;10.70;99.90
12700;DHT22;6414;49.570;6.060;2023-02-17T17:12:29;10.70;99.90
12700;DHT22;6414;49.570;6.060;2023-02-17T17:15:15;10.70;99.90
12700;DHT22;6414;49.570;6.060;2023-02-17T17:18:04;10.70;99.90
12700;DHT22;6414;49.570;6.060;2023-02-17T17:20:49;10.70;99.90
12700;DHT22;6414;49.570;6.060;2023-02-17T17:23:35;10.70;99.90
12700;DHT22;6414;49.570;6.060;2023-02-17T17:26:33;10.70;99.90
12700;DHT22;6414;49.570;6.060;2023-02-17T17:29:18;10.70;99.90
12700;DHT22;6414;49.570;6.060;2023-02-17T17:32:03;10.70;99.90
12700;DHT22;6414;49.570;6.060;2023-02-17T17:34:49;10.70;99.90
12700;DHT22;6414;49.570;6.060;2023-02-17T17:37:34;10.70;99.90
12700;DHT22;6414;49.570;6.060;2023-02-17T17:40:29;10.70;99.90
12700;DHT22;6414;49.570;6.060;2023-02-17T17:43:11;10.70;99.90
12700;DHT22;6414;49.570;6.060;2023-02-17T17:45:56;10.70;99.90
12700;DHT22;6414;49.570;6.060;2023-02-17T17:48:42;10.70;99.90
12700;DHT22;6414;49.570;6.060;2023-02-17T17:51:28;10.80;99.90
12700;DHT22;6414;49.570;6.060;2023-02-17T17:54:13;10.80;99.90
12700;DHT22;6414;49.570;6.060;2023-02-17T17:57:00;10.80;99.90
12700;DHT22;6414;49.570;6.060;2023-02-17T17:59:45;10.70;99.90
12700;DHT22;6414;49.570;6.060;2023-02-17T18:02:31;10.80;99.90
12700;DHT22;6414;49.570;6.060;2023-02-17T18:05:16;10.70;99.90
12700;DHT22;6414;49.570;6.060;2023-02-17T18:08:02;10.80;99.90
12700;DHT22;6414;49.570;6.060;2023-02-17T18:10:48;10.80;99.90
12700;DHT22;6414;49.570;6.060;2023-02-17T18:13:33;10.80;99.90
12700;DHT22;6414;49.570;6.060;2023-02-17T18:16:23;10.80;99.90
12700;DHT22;6414;49.570;6.060;2023-02-17T18:19:08;10.80;99.90
12700;DHT22;6414;49.570;6.060;2023-02-17T18:21:53;10.80;99.90
12700;DHT22;6414;49.570;6.060;2023-02-17T18:24:39;10.80;99.90
12700;DHT22;6414;49.570;6.060;2023-02-17T18:27:26;10.80;99.90
12700;DHT22;6414;49.570;6.060;2023-02-17T18:30:13;10.80;99.90
12700;DHT22;6414;49.570;6.060;2023-02-17T18:32:57;10.80;99.90
12700;DHT22;6414;49.570;6.060;2023-02-17T18:35:43;10.80;99.90
12700;DHT22;6414;49.570;6.060;2023-02-17T18:38:29;10.80;99.90
12700;DHT22;6414;49.570;6.060;2023-02-17T18:41:24;10.80;99.90
12700;DHT22;6414;49.570;6.060;2023-02-17T18:44:09;10.80;99.90
12700;DHT22;6414;49.570;6.060;2023-02-17T18:46:54;10.80;99.90
12700;DHT22;6414;49.570;6.060;2023-02-17T18:49:40;10.80;99.90
12700;DHT22;6414;49.570;6.060;2023-02-17T18:52:26;10.80;99.90
12700;DHT22;6414;49.570;6.060;2023-02-17T18:55:12;10.80;99.90
12700;DHT22;6414;49.570;6.060;2023-02-17T18:57:57;10.80;99.90
12700;DHT22;6414;49.570;6.060;2023-02-17T19:00:43;10.90;99.90